createdAt,value
2022-08-07T00:04:16.851Z,2.85
2022-08-07T00:09:24.050Z,2.86
2022-08-07T00:14:32.248Z,2.86
2022-08-07T00:19:39.075Z,2.86
2022-08-07T00:24:47.927Z,2.87
2022-08-07T00:29:54.857Z,2.85
2022-08-07T00:35:02.001Z,2.85
2022-08-07T00:40:09.477Z,2.85
2022-08-07T00:45:18.091Z,2.86
2022-08-07T00:50:25.498Z,2.86
2022-08-07T00:55:32.942Z,2.85
2022-08-07T01:00:40.496Z,2.86
2022-08-07T01:05:48.875Z,2.86
2022-08-07T01:10:55.574Z,2.86
2022-08-07T01:16:03.915Z,2.86
2022-08-07T01:21:11.065Z,2.86
2022-08-07T01:26:34.928Z,2.86
2022-08-07T01:31:41.684Z,2.86
2022-08-07T01:36:49.369Z,2.86
2022-08-07T01:41:57.976Z,2.86
2022-08-07T01:47:06.161Z,2.86
2022-08-07T01:52:14.795Z,2.86
2022-08-07T01:57:21.498Z,2.86
2022-08-07T02:02:28.703Z,2.85
2022-08-07T02:09:07.665Z,2.86
2022-08-07T02:14:14.128Z,2.86
2022-08-07T02:19:22.251Z,2.85
2022-08-07T02:24:30.810Z,2.86
2022-08-07T02:29:39.061Z,2.84
2022-08-07T02:34:46.623Z,2.85
2022-08-07T02:39:53.211Z,2.85
2022-08-07T02:45:01.784Z,2.86
2022-08-07T02:50:08.864Z,2.86
2022-08-07T02:55:21.818Z,2.85
2022-08-07T03:00:28.402Z,2.85
2022-08-07T03:05:36.739Z,2.86
2022-08-07T03:10:44.079Z,2.84
2022-08-07T03:15:53.051Z,2.84
2022-08-07T03:21:01.129Z,2.84
2022-08-07T03:26:09.061Z,2.85
2022-08-07T03:31:17.336Z,2.84
2022-08-07T03:36:25.328Z,2.84
2022-08-07T03:41:32.055Z,2.84
2022-08-07T03:46:39.512Z,2.85
2022-08-07T03:51:47.427Z,2.85
2022-08-07T03:56:54.613Z,2.86
2022-08-07T04:02:02.435Z,2.85
2022-08-07T04:07:09.008Z,2.84
2022-08-07T04:12:16.856Z,2.86
2022-08-07T04:17:25.293Z,2.85
2022-08-07T04:22:33.358Z,2.85
2022-08-07T04:27:40.339Z,2.85
2022-08-07T04:32:48.789Z,2.85
2022-08-07T04:37:57.271Z,2.85
2022-08-07T04:43:05.109Z,2.85
2022-08-07T04:48:12.795Z,2.84
2022-08-07T04:53:21.357Z,2.86
2022-08-07T04:58:28.725Z,2.86
2022-08-07T05:03:37.691Z,2.86
2022-08-07T05:08:45.036Z,2.86
2022-08-07T05:13:53.120Z,2.86
2022-08-07T05:19:00.483Z,2.86
2022-08-07T05:24:09.489Z,2.86
2022-08-07T05:29:17.034Z,2.86
2022-08-07T05:34:25.229Z,2.87
2022-08-07T05:39:34.096Z,2.86
2022-08-07T05:44:41.819Z,2.86
2022-08-07T05:49:49.192Z,2.87
2022-08-07T05:54:57.877Z,2.86
2022-08-07T06:00:06.412Z,2.87
2022-08-07T06:05:13.460Z,2.86
2022-08-07T06:10:21.041Z,2.88
2022-08-07T06:15:29.647Z,2.88
2022-08-07T06:20:36.054Z,2.88
2022-08-07T06:25:43.903Z,2.88
2022-08-07T06:30:52.885Z,2.88
2022-08-07T06:35:59.804Z,2.89
2022-08-07T06:41:08.127Z,2.88
2022-08-07T06:46:16.191Z,2.88
2022-08-07T06:51:24.154Z,2.89
2022-08-07T06:56:32.380Z,2.9
2022-08-07T07:01:41.204Z,2.9
2022-08-07T07:06:48.979Z,2.91
2022-08-07T07:11:56.647Z,2.91
2022-08-07T07:17:06.066Z,2.91
2022-08-07T07:22:12.691Z,2.9
2022-08-07T07:27:21.045Z,2.91
2022-08-07T07:32:42.746Z,2.91
2022-08-07T07:38:02.837Z,2.91
2022-08-07T07:43:11.638Z,2.89
2022-08-07T07:48:21.279Z,2.89
2022-08-07T07:53:29.203Z,2.89
2022-08-07T07:58:37.018Z,2.9
2022-08-07T08:03:44.859Z,2.91
2022-08-07T08:08:52.102Z,2.9
2022-08-07T08:13:59.749Z,2.89
2022-08-07T08:19:07.804Z,2.9
2022-08-07T08:24:15.775Z,2.9
2022-08-07T08:29:23.755Z,2.91
2022-08-07T08:34:31.294Z,2.9
2022-08-07T08:39:39.729Z,2.9
2022-08-07T08:44:47.627Z,2.9
2022-08-07T08:49:55.833Z,2.89
2022-08-07T08:55:02.753Z,2.89
2022-08-07T09:00:10.935Z,2.9
2022-08-07T09:05:20.085Z,2.9
2022-08-07T09:10:27.447Z,2.9
2022-08-07T09:15:35.980Z,2.91
2022-08-07T09:20:49.689Z,2.92
2022-08-07T09:25:57.342Z,2.92
2022-08-07T09:31:04.143Z,2.91
2022-08-07T09:36:13.047Z,2.92
2022-08-07T09:41:21.961Z,2.92
2022-08-07T09:46:29.344Z,2.92
2022-08-07T09:51:37.693Z,2.91
2022-08-07T09:56:44.382Z,2.91
2022-08-07T10:01:52.729Z,2.91
2022-08-07T10:07:01.450Z,2.91
2022-08-07T10:12:09.239Z,2.91
2022-08-07T10:17:17.293Z,2.9
2022-08-07T10:22:25.725Z,2.9
2022-08-07T10:27:32.959Z,2.9
2022-08-07T10:32:39.923Z,2.91
2022-08-07T10:37:47.899Z,2.91
2022-08-07T10:42:55.660Z,2.9
2022-08-07T10:48:02.764Z,2.91
2022-08-07T10:53:10.072Z,2.91
2022-08-07T10:58:17.963Z,2.91
2022-08-07T11:03:24.376Z,2.91
2022-08-07T11:08:32.736Z,2.9
2022-08-07T11:13:39.635Z,2.91
2022-08-07T11:18:47.642Z,2.92
2022-08-07T11:23:53.818Z,2.9
2022-08-07T11:29:01.479Z,2.91
2022-08-07T11:34:08.832Z,2.91
2022-08-07T11:39:16.727Z,2.92
2022-08-07T11:44:24.315Z,2.91
2022-08-07T11:49:37.496Z,2.91
2022-08-07T11:54:45.530Z,2.9
2022-08-07T11:59:52.601Z,2.91
2022-08-07T12:05:00.372Z,2.9
2022-08-07T12:10:08.187Z,2.9
2022-08-07T12:15:16.780Z,2.9
2022-08-07T12:20:24.939Z,2.9
2022-08-07T12:25:34.172Z,2.9
2022-08-07T12:30:41.497Z,2.92
2022-08-07T12:35:54.421Z,2.91
2022-08-07T12:41:00.379Z,2.9
2022-08-07T12:46:08.152Z,2.91
2022-08-07T12:51:15.355Z,2.91
2022-08-07T12:56:23.238Z,2.91
2022-08-07T13:01:31.320Z,2.92
2022-08-07T13:06:38.469Z,2.91
2022-08-07T13:11:45.532Z,2.91
2022-08-07T13:16:53.385Z,2.91
2022-08-07T13:22:01.244Z,2.91
2022-08-07T13:27:09.039Z,2.91
2022-08-07T13:32:16.728Z,2.91
2022-08-07T13:37:24.694Z,2.91
2022-08-07T13:42:33.692Z,2.92
2022-08-07T13:47:41.310Z,2.92
2022-08-07T13:52:47.582Z,2.91
2022-08-07T13:57:55.738Z,2.91
2022-08-07T14:03:02.885Z,2.92
2022-08-07T14:08:10.101Z,2.92
2022-08-07T14:13:17.696Z,2.91
2022-08-07T14:18:25.287Z,2.91
2022-08-07T14:23:32.732Z,2.9
2022-08-07T14:28:40.596Z,2.91
2022-08-07T14:33:46.492Z,2.91
2022-08-07T14:39:02.158Z,2.92
2022-08-07T14:44:09.179Z,2.91
2022-08-07T14:49:17.637Z,2.91
2022-08-07T14:54:24.505Z,2.91
2022-08-07T14:59:32.065Z,2.91
2022-08-07T15:04:39.330Z,2.91
2022-08-07T15:09:47.130Z,2.91
2022-08-07T15:14:55.441Z,2.91
2022-08-07T15:20:03.416Z,2.91
2022-08-07T15:25:11.278Z,2.9
2022-08-07T15:30:19.036Z,2.91
2022-08-07T15:35:26.299Z,2.9
2022-08-07T15:40:33.891Z,2.91
2022-08-07T15:45:41.461Z,2.9
2022-08-07T15:50:49.593Z,2.9
2022-08-07T15:55:57.696Z,2.91
2022-08-07T16:01:06.547Z,2.91
2022-08-07T16:06:15.662Z,2.91
2022-08-07T16:11:22.944Z,2.9
2022-08-07T16:16:37.978Z,2.9
2022-08-07T16:21:45.592Z,2.9
2022-08-07T16:26:53.750Z,2.89
2022-08-07T16:32:00.730Z,2.9
2022-08-07T16:37:08.903Z,2.89
2022-08-07T16:42:16.821Z,2.9
2022-08-07T16:47:23.742Z,2.89
2022-08-07T16:52:31.541Z,2.89
2022-08-07T16:57:38.135Z,2.89
2022-08-07T17:02:45.333Z,2.88
2022-08-07T17:07:52.589Z,2.89
2022-08-07T17:12:59.106Z,2.89
2022-08-07T17:18:07.260Z,2.89
2022-08-07T17:23:15.617Z,2.89
2022-08-07T17:28:23.264Z,2.88
2022-08-07T17:33:30.392Z,2.89
2022-08-07T17:38:38.165Z,2.88
2022-08-07T17:43:46.373Z,2.89
2022-08-07T17:48:53.332Z,2.88
2022-08-07T17:54:02.062Z,2.88
2022-08-07T17:59:10.018Z,2.87
2022-08-07T18:04:26.325Z,2.88
2022-08-07T18:09:33.016Z,2.88
2022-08-07T18:14:40.598Z,2.88
2022-08-07T18:19:49.134Z,2.88
2022-08-07T18:24:58.326Z,2.88
2022-08-07T18:30:06.255Z,2.88
2022-08-07T18:35:14.117Z,2.87
2022-08-07T18:40:21.336Z,2.88
2022-08-07T18:45:29.175Z,2.88
2022-08-07T18:50:36.457Z,2.88
2022-08-07T18:55:58.939Z,2.88
2022-08-07T19:01:05.499Z,2.88
2022-08-07T19:06:13.298Z,2.88
2022-08-07T19:11:20.839Z,2.86
2022-08-07T19:16:28.383Z,2.87
2022-08-07T19:21:36.448Z,2.87
2022-08-07T19:26:43.795Z,2.87
2022-08-07T19:31:53.174Z,2.87
2022-08-07T19:37:00.984Z,2.87
2022-08-07T19:42:08.861Z,2.88
2022-08-07T19:47:16.486Z,2.86
2022-08-07T19:52:26.390Z,2.87
2022-08-07T19:57:33.657Z,2.87
2022-08-07T20:02:42.234Z,2.86
2022-08-07T20:07:50.100Z,2.87
2022-08-07T20:12:58.207Z,2.86
2022-08-07T20:18:06.291Z,2.86
2022-08-07T20:23:12.888Z,2.86
2022-08-07T20:28:21.202Z,2.86
2022-08-07T20:33:28.551Z,2.87
2022-08-07T20:38:37.082Z,2.86
2022-08-07T20:43:45.354Z,2.85
2022-08-07T20:48:52.578Z,2.87
2022-08-07T20:54:01.623Z,2.86
2022-08-07T20:59:16.890Z,2.86
2022-08-07T21:04:23.838Z,2.86
2022-08-07T21:09:32.064Z,2.86
2022-08-07T21:14:39.566Z,2.86
2022-08-07T21:19:46.139Z,2.86
2022-08-07T21:24:53.705Z,2.86
2022-08-07T21:30:01.644Z,2.85
2022-08-07T21:35:09.641Z,2.86
2022-08-07T21:40:17.496Z,2.86
2022-08-07T21:45:24.096Z,2.86
2022-08-07T21:50:33.161Z,2.86
2022-08-07T21:55:40.381Z,2.85
2022-08-07T22:00:47.788Z,2.86
2022-08-07T22:05:55.430Z,2.86
2022-08-07T22:11:03.688Z,2.85
2022-08-07T22:16:11.846Z,2.86
2022-08-07T22:21:20.022Z,2.87
2022-08-07T22:26:27.926Z,2.86
2022-08-07T22:31:35.448Z,2.86
2022-08-07T22:36:42.452Z,2.86
2022-08-07T22:41:50.093Z,2.86
2022-08-07T22:46:59.275Z,2.86
2022-08-07T22:52:06.279Z,2.86
2022-08-07T22:57:14.814Z,2.86
2022-08-07T23:02:22.408Z,2.86
2022-08-07T23:07:30.473Z,2.86
2022-08-07T23:12:37.337Z,2.86
2022-08-07T23:17:43.927Z,2.86
2022-08-07T23:22:51.726Z,2.85
2022-08-07T23:27:58.941Z,2.86
2022-08-07T23:33:06.781Z,2.86
2022-08-07T23:38:14.649Z,2.86
2022-08-07T23:43:22.392Z,2.86
2022-08-07T23:48:30.282Z,2.86
2022-08-07T23:53:37.831Z,2.86
2022-08-07T23:58:45.624Z,2.86
